Tiempo atmosférico en la estación meteorológica de Ribadeo, Lugo (43 m.)



Fecha
DESCASC
Temp. máxima en grados centígrados (hora)
DESCASC
Temp. mínima en grados centígrados (hora)
DESCASC
Temp. media en grados centígrados
DESCASC
Racha de viento máxima en m/sg (hora)
DESCASC
Velocidad máxima media en intervalos de 10 minutos(hora)
DESCASC
Precipitaciones diarias en mm
DESCASC
Precipitaciones de 00:00 a 06:00 en mm
DESCASC
Precipitaciones de 06:00 a 12:00 en mm
DESCASC
Precipitaciones de 12:00 a 18:00 en mm
DESCASC
Precipitaciones de 18:00 a 24:00 en mm
DESCASC
18-04-2019 16.5 (15:30) 9.3 (08:10) 12.9 7.22 (17:10) 4.72 (14:40) 2 1.6 0 0 0.4
17-04-2019 16.9 (12:50) 9 (04:40) 12.9 4.72 (18:30) 3.33 (22:30) 7.6 0 0 0 7.6
16-04-2019 16.9 (13:00) 9.2 (00:00) 13 9.72 (15:30) 6.94 (15:50) 0 0 0 0 0
15-04-2019 20 (11:40) 9.5 (00:00) 14.8 19.17 (12:20) 10.56 (12:30) 4.8 0 3.2 1.6 0
14-04-2019 23.1 (14:20) 14.5 (00:00) 18.8 12.22 (09:00) 8.06 (09:00) 0 0 0 0 0
13-04-2019 19.1 (12:00) 8.2 (00:00) 13.7 5.56 (16:00) 3.89 (14:20) 0 0 0 0 0
12-04-2019 15.2 (17:40) 6 (00:00) 10.6 8.61 (16:20) 5.83 (16:40) 0 0 0 0 0
11-04-2019 14 (15:50) 6.9 (00:00) 10.5 5.28 (15:20) 3.33 (08:10) 0 0 0 0 0
10-04-2019 14.6 (15:10) 9.6 (00:00) 12.1 9.72 (09:00) 5.83 (00:40) 9.6 5.4 4.2 0 0
09-04-2019 15.4 (14:30) 9.1 (00:00) 12.3 12.22 (14:40) 6.94 (04:20) 4.4 1.4 0 2.6 0.4
08-04-2019 17 (15:20) 9.9 (00:00) 13.4 18.61 (20:10) 7.22 (20:10) 2.6 1.2 0 0.8 0.6
07-04-2019 15.6 (15:30) 6.9 (00:00) 11.3 14.72 (22:10) 8.61 (05:30) 3 0 0 1 2
06-04-2019 11.6 (16:30) 7 (00:00) 9.3 14.17 (09:20) 9.17 (05:20) 4.6 0 0 3.2 1.4
05-04-2019 13.1 (14:30) 6 (00:00) 9.6 17.22 (13:40) 9.44 (06:00) 2.2 0.2 0 2 0
04-04-2019 11.4 (15:10) 5.5 (00:00) 8.4 19.17 (15:40) 11.11 (14:20) 0.6 0.6 0 0 0
03-04-2019 11.5 (15:10) 6.2 (00:00) 8.8 13.89 (16:00) 8.06 (16:00) 7.8 2.4 2.4 0 3
02-04-2019 13.3 (12:00) 8.6 (00:00) 11 8.06 (19:10) 4.72 (20:20) 0 0 0 0 0
01-04-2019 15.2 (13:30) 7.5 (00:00) 11.3 4.72 (17:40) 2.78 (17:20) 0 0 0 0 0
31-03-2019 14.4 (14:40) 7.4 (00:00) 10.9 6.11 (16:00) 3.61 (15:50) 0 0 0 0 0
30-03-2019 14.8 (13:30) 6 (00:00) 10.4 4.72 (14:40) 2.78 (15:30) 0 0 0 0 0
29-03-2019 13.9 (13:40) 5.4 (00:00) 9.6 7.22 (14:30) 4.44 (14:20) 0 0 0 0 0
28-03-2019 14.3 (14:00) 5.7 (00:00) 10 14.17 (16:00) 8.61 (16:00) 0 0 0 0 0
27-03-2019 13.8 (13:10) 6.9 (00:00) 10.4 16.11 (16:50) 10.83 (15:10) 0 0 0 0 0
26-03-2019 13.2 (13:40) 8 (00:00) 10.6 19.72 (13:30) 12.78 (12:40) 0 0 0 0 0
25-03-2019 14.1 (13:30) 10.2 (00:00) 12.2 17.22 (15:40) 11.39 (16:10) 0 0 0 0 0
24-03-2019 14.4 (16:00) 7.7 (00:00) 11 8.61 (23:20) 5 (21:40) 0 0 0 0 0
23-03-2019 16.9 (11:30) 5.3 (00:00) 11.1 6.11 (16:50) 3.89 (13:50) 0 0 0 0 0
22-03-2019 16.3 (12:20) 5 (00:00) 10.6 4.44 (03:00) 3.61 (06:10) 0 0 0 0 0
21-03-2019 14 (14:10) 6.1 (00:00) 10 15 (15:00) 8.33 (16:30) 0 0 0 0 0

Gráficas

Temp. máximas Temp. mínimas Temp. medias Precipitaciones Rachas de viento máximas Velocidades máximas media en intervalos de 10 minutos

Datos horarios

Fecha y hora oficial Temperatura (ºC) Velocidad del viento (km/h) Dirección del viento Racha (km/h) Dirección de racha Precipitación (mm) Presión (hPa) Tendencia (hPa) Humedad (%)
2019-04-19 23:00:00 11.6 3 Oeste 8 Sudoeste 0 -- -- 91
2019-04-19 22:00:00 12.6 4 Oeste 11 Oeste 0 -- -- 91
2019-04-19 21:00:00 14.2 3 Noroeste 10 Noroeste 0 -- -- 86
2019-04-19 20:00:00 14.7 5 Norte 14 Noroeste 0 -- -- 86
2019-04-19 19:00:00 15.2 5 Norte 18 Nordeste 0 -- -- 84
2019-04-19 18:00:00 15.6 11 Nordeste 25 Este 0 -- -- 84
2019-04-19 17:00:00 15.3 13 Nordeste 25 Nordeste 0 -- -- 87
2019-04-19 16:00:00 14.9 13 Nordeste 26 Nordeste 0 -- -- 89
2019-04-19 15:00:00 15.4 15 Nordeste 27 Este 0 -- -- 87
2019-04-19 14:00:00 16.2 14 Nordeste 27 Este 0 -- -- 83
2019-04-19 13:00:00 14.6 14 Este 27 Este 0 -- -- 90
2019-04-19 12:00:00 13.7 18 Este 28 Este 0 -- -- 94
2019-04-19 11:00:00 12.9 12 Nordeste 22 Nordeste 0 -- -- 97
2019-04-19 10:00:00 12.9 9 Este 17 Nordeste 0 -- -- 97
2019-04-19 09:00:00 12.7 11 Nordeste 26 Nordeste 0.2 -- -- 97
2019-04-19 08:00:00 12.7 11 Nordeste 22 Nordeste 0 -- -- 97
2019-04-19 07:00:00 12.5 14 Nordeste 26 Nordeste 0.8 -- -- 97
2019-04-19 06:00:00 12.6 13 Nordeste 26 Nordeste 1 -- -- 97
2019-04-19 05:00:00 12.5 7 Nordeste 17 Nordeste 0.6 -- -- 96
2019-04-19 04:00:00 12.5 11 Nordeste 23 Nordeste 0 -- -- 95
2019-04-19 03:00:00 12.4 12 Nordeste 23 Nordeste 0 -- -- 97
2019-04-19 02:00:00 12.1 10 Nordeste 19 Nordeste 0 -- -- 97
2019-04-19 01:00:00 12.3 8 Nordeste 17 Nordeste 0 -- -- 94
2019-04-19 00:00:00 12.5 5 Nordeste 12 Nordeste 0 -- -- 94
2019-04-18 23:00:00 12.6 4 Nordeste 16 Nordeste 0.4 -- -- 95
2019-04-18 22:00:00 12.9 10 Nordeste 17 Este 0 -- -- 92
2019-04-18 21:00:00 13.1 9 Nordeste 22 Este 0 -- -- 90
2019-04-18 20:00:00 13.6 12 Este 26 Nordeste 0 -- -- 90
2019-04-18 19:00:00 14.1 15 Nordeste 26 Este 0 -- -- 87
2019-04-18 18:00:00 14.7 13 Nordeste 26 Este 0 -- -- 86
2019-04-18 17:00:00 15.9 13 Nordeste 25 Nordeste 0 -- -- 81
2019-04-18 16:00:00 16.2 14 Nordeste 26 Este 0 -- -- 76
2019-04-18 15:00:00 16 11 Este 24 Este 0 -- -- 80
2019-04-18 14:00:00 15.5 12 Este 22 Este 0 -- -- 75
2019-04-18 13:00:00 14.7 6 Este 18 Nordeste 0 -- -- 81
2019-04-18 12:00:00 15.3 6 Norte 13 Nordeste 0 -- -- 77
2019-04-18 11:00:00 14.1 7 Este 10 Este 0 -- -- 88
2019-04-18 10:00:00 12.7 4 Sur 12 Sudeste 0 -- -- 89
2019-04-18 09:00:00 10.3 4 Sudeste 12 Este 0 -- -- 96
2019-04-18 08:00:00 9.4 0 Calma 11 Sur 0 -- -- 94
2019-04-18 07:00:00 10 6 Sudeste 9 Sudeste 0 -- -- 95
2019-04-18 06:00:00 10.3 6 Sur 9 Sur 0 -- -- 95
2019-04-18 05:00:00 11.5 3 Este 16 Sudoeste 0.4 -- -- 95
2019-04-18 04:00:00 11.6 2 Sudeste 9 Sudoeste 0.2 -- -- 95
2019-04-18 03:00:00 11.6 5 Sudeste 9 Sudeste 0.2 -- -- 96
2019-04-18 02:00:00 11.5 3 Sudeste 6 Sudeste 0 -- -- 95
2019-04-18 01:00:00 11.6 2 Oeste 9 Sur 0.8 -- -- 94
2019-04-18 00:00:00 11.9 2 Oeste 12 Sudoeste 2.2 -- -- 93
2019-04-17 23:00:00 11.5 8 Sudoeste 17 Oeste 1.8 -- -- 92
2019-04-17 22:00:00 12 3 Sudoeste 12 Sur 3.2 -- -- 92
2019-04-17 21:00:00 13 5 Sudoeste 11 Sur 0.4 -- -- 84
2019-04-17 20:00:00 14.6 4 Sudeste 10 Nordeste 0 -- -- 77
2019-04-17 19:00:00 14.8 6 Nordeste 17 Este 0 -- -- 74
2019-04-17 18:00:00 15.7 9 Este 14 Este 0 -- -- 63
2019-04-17 17:00:00 15.6 7 Nordeste 15 Nordeste 0 -- -- 67
2019-04-17 16:00:00 15.6 8 Nordeste 14 Nordeste 0 -- -- 76
2019-04-17 15:00:00 15.9 9 Nordeste 17 Nordeste 0 -- -- 74
2019-04-17 14:00:00 15.7 4 Noroeste 12 Norte 0 -- -- 75
2019-04-17 13:00:00 16.9 7 Oeste 14 Oeste 0 -- -- 67
2019-04-17 12:00:00 15.8 9 Oeste 14 Oeste 0 -- -- 76
2019-04-17 11:00:00 15.4 3 Noroeste 6 Oeste 0 -- -- 80
2019-04-17 10:00:00 12.9 2 Sur 5 Este 0 -- -- 87
2019-04-17 09:00:00 11 0 Calma 5 Sur 0 -- -- 91
2019-04-17 08:00:00 9.5 4 Sur 6 Sur 0 -- -- 92
2019-04-17 07:00:00 9.3 3 Sur 8 Sur 0 -- -- 94
2019-04-17 06:00:00 9.2 2 Sudeste 8 Sudoeste 0 -- -- 94
2019-04-17 05:00:00 9.2 2 Oeste 5 Sudoeste 0 -- -- 94
2019-04-17 04:00:00 9.3 0 Calma 9 Sudeste 0 -- -- 92
2019-04-17 03:00:00 9.7 4 Sur 9 Sudeste 0 -- -- 94
2019-04-17 02:00:00 10.1 6 Sur 10 Sur 0 -- -- 93
2019-04-17 01:00:00 10.4 0 Calma 6 Sudeste 0 -- -- 92
2019-04-17 00:00:00 11.3 4 Sur 15 Oeste 0 -- -- 91
2019-04-16 23:00:00 11.3 9 Oeste 12 Oeste 0 -- -- 91
2019-04-16 22:00:00 12.8 4 Este 17 Este 0 -- -- 88
2019-04-16 21:00:00 13.4 11 Este 25 Nordeste 0 -- -- 84
2019-04-16 20:00:00 14.5 15 Este 28 Nordeste 0 -- -- 77
2019-04-16 19:00:00 15.2 19 Este 29 Este 0 -- -- 72
2019-04-16 18:00:00 16.2 19 Este 32 Nordeste 0 -- -- 70
2019-04-16 17:00:00 16.3 20 Este 34 Este 0 -- -- 68
2019-04-16 16:00:00 16.3 23 Este 35 Nordeste 0 -- -- 67
2019-04-16 15:00:00 16.4 21 Este 32 Este 0 -- -- 65
2019-04-16 14:00:00 15.5 14 Nordeste 22 Este 0 -- -- 70
2019-04-16 13:00:00 16.9 10 Este 17 Este 0 -- -- 59
2019-04-16 12:00:00 15.9 7 Este 12 Nordeste 0 -- -- 56
2019-04-16 11:00:00 14 4 Nordeste 7 Nordeste 0 -- -- 71
2019-04-16 10:00:00 12.5 5 Sudeste 13 Sudeste 0 -- -- 69
2019-04-16 09:00:00 10.1 3 Norte 9 Este 0 -- -- 81
2019-04-16 08:00:00 10 4 Sudoeste 26 Sur 0 -- -- 73
2019-04-16 07:00:00 10.2 20 Sur 31 Sur 0 -- -- 74
2019-04-16 06:00:00 11.1 13 Sur 28 Sudoeste 0 -- -- 71
2019-04-16 05:00:00 11.2 15 Sudoeste 27 Sur 0 -- -- 72
2019-04-16 04:00:00 11 13 Sur 24 Sudoeste 0 -- -- 75
2019-04-16 03:00:00 11.3 10 Sudoeste 24 Sur 0 -- -- 76
2019-04-16 02:00:00 11 11 Sur 20 Sur 0 -- -- 78
2019-04-16 01:00:00 9.7 7 Sur 15 Sur 0 -- -- 82
2019-04-16 00:00:00 9.7 4 Sudoeste 11 Sur 0 -- -- 82
2019-04-15 23:00:00 9.6 6 Sur 9 Sur 0 -- -- 87
2019-04-15 22:00:00 10.9 5 Oeste 13 Oeste 0 -- -- 82
2019-04-15 21:00:00 13.2 6 Oeste 14 Noroeste 0 -- -- 73
2019-04-15 20:00:00 13.9 10 Noroeste 23 Noroeste 0 -- -- 73
2019-04-15 19:00:00 15.7 18 Oeste 33 Oeste 0 -- -- 69
2019-04-15 18:00:00 16.3 20 Oeste 37 Oeste 1.2 -- -- 72
2019-04-15 17:00:00 13.9 13 Noroeste 31 Noroeste 0.2 -- -- 85
2019-04-15 16:00:00 16.2 15 Sudoeste 28 Sudoeste 0 -- -- 70
2019-04-15 15:00:00 16.2 14 Sudoeste 49 Sudoeste 0 -- -- 70
2019-04-15 14:00:00 16.8 22 Sudoeste 37 Sudoeste 0 -- -- 69
2019-04-15 13:00:00 15.1 19 Sudoeste 69 Oeste 0.2 -- -- 79
2019-04-15 12:00:00 19.6 21 Sudoeste 40 Sur 0 -- -- 60
2019-04-15 11:00:00 19.1 9 Sudoeste 24 Sudoeste 0 -- -- 70
2019-04-15 10:00:00 16.1 9 Sur 27 Sur 2.8 -- -- 90
2019-04-15 09:00:00 16.7 14 Sudoeste 25 Sudoeste 0.4 -- -- 83
2019-04-15 08:00:00 15.4 8 Sudoeste 12 Oeste 0 -- -- 88
2019-04-15 07:00:00 15.4 4 Sudoeste 11 Sudeste 0 -- -- 88
2019-04-15 06:00:00 14.9 9 Sudeste 12 Sudeste 0 -- -- 91
2019-04-15 05:00:00 14.3 4 Sur 13 Oeste 0 -- -- 93
2019-04-15 04:00:00 14.5 3 Norte 6 Sur 0 -- -- 91
2019-04-15 03:00:00 14.4 5 Sur 8 Sur 0 -- -- 93
2019-04-15 02:00:00 14.4 3 Este 9 Sudeste 0 -- -- 92
2019-04-15 01:00:00 14.3 6 Sudeste 9 Sudeste 0 -- -- 91
2019-04-15 00:00:00 14.9 4 Sudeste 6 Sudeste 0 -- -- 90
2019-04-14 23:00:00 14.5 6 Oeste 12 Oeste 0 -- -- 91
2019-04-14 22:00:00 15.1 11 Oeste 18 Oeste 0 -- -- 89
2019-04-14 21:00:00 15.9 2 Oeste 6 Nordeste 0 -- -- 85
2019-04-14 20:00:00 16.9 4 Noroeste 9 Nordeste 0 -- -- 82
2019-04-14 19:00:00 18.8 7 Nordeste 12 Norte 0 -- -- 73
2019-04-14 18:00:00 18.6 4 Norte 14 Nordeste 0 -- -- 75
2019-04-14 17:00:00 20.5 7 Nordeste 12 Nordeste 0 -- -- 67
2019-04-14 16:00:00 21.3 6 Nordeste 14 Nordeste 0 -- -- 65
2019-04-14 15:00:00 21.6 6 Norte 21 Sudoeste 0 -- -- 64
2019-04-14 14:00:00 22.9 15 Sudoeste 27 Sudoeste 0 -- -- 58
2019-04-14 13:00:00 22.6 13 Sudoeste 35 Oeste 0 -- -- 59
2019-04-14 12:00:00 22.1 6 Sudoeste 28 Sudoeste 0 -- -- 63
2019-04-14 11:00:00 20.8 8 Sudoeste 36 Sudoeste 0 -- -- 67
2019-04-14 10:00:00 18.7 26 Sur 40 Sur 0 -- -- 72
2019-04-14 09:00:00 17.8 29 Sur 44 Sur 0 -- -- 74
2019-04-14 08:00:00 17.2 8 Sudoeste 25 Sudoeste 0 -- -- 75
2019-04-14 07:00:00 17.5 11 Sudoeste 27 Sudoeste 0 -- -- 74
2019-04-14 06:00:00 17.3 12 Sur 22 Sur 0 -- -- 74
2019-04-14 05:00:00 17.2 5 Sudoeste 35 Sur 0 -- -- 75
2019-04-14 04:00:00 17.2 18 Sur 33 Sudoeste 0 -- -- 74
2019-04-14 03:00:00 17 13 Sudoeste 36 Sur 0 -- -- 75
2019-04-14 02:00:00 17.2 21 Sur 35 Sur 0 -- -- 75
2019-04-14 01:00:00 16.6 12 Sudoeste 26 Sur 0 -- -- 78
2019-04-14 00:00:00 14.7 3 Sudeste 10 Este 0 -- -- 79
2019-04-13 23:00:00 14.8 4 Este 9 Noroeste 0 -- -- 74
2019-04-13 22:00:00 14.8 3 Oeste 8 Sudeste 0 -- -- 76
2019-04-13 21:00:00 15.4 5 Sudeste 7 Sur 0 -- -- 71
2019-04-13 20:00:00 15.4 0 Calma 7 Noroeste 0 -- -- 83
2019-04-13 19:00:00 16.1 3 Nordeste 8 Nordeste 0 -- -- 76
2019-04-13 18:00:00 16.4 5 Nordeste 15 Nordeste 0 -- -- 72
2019-04-13 17:00:00 17.7 10 Nordeste 17 Nordeste 0 -- -- 66
2019-04-13 16:00:00 18.4 11 Nordeste 20 Nordeste 0 -- -- 56
2019-04-13 15:00:00 18.3 11 Nordeste 20 Este 0 -- -- 60
2019-04-13 14:00:00 18.5 10 Nordeste 20 Este 0 -- -- 59
2019-04-13 13:00:00 18.3 8 Nordeste 15 Nordeste 0 -- -- 58
2019-04-13 12:00:00 19.1 6 Noroeste 17 Sudoeste 0 -- -- 59
2019-04-13 11:00:00 17.7 6 Sur 15 Sur 0 -- -- 62
2019-04-13 10:00:00 15.2 0 Calma 8 Sudoeste 0 -- -- 70
2019-04-13 09:00:00 12.4 0 Calma 7 Sur 0 -- -- 76
2019-04-13 08:00:00 10 2 Sudeste 14 Oeste 0 -- -- 82
2019-04-13 07:00:00 10.8 3 Nordeste 10 Sur 0 -- -- 75
2019-04-13 06:00:00 8.8 3 Sur 5 Sur 0 -- -- 85
2019-04-13 05:00:00 9.3 5 Sudeste 8 Sur 0 -- -- 83
2019-04-13 04:00:00 9.7 7 Sur 12 Sudeste 0 -- -- 81
2019-04-13 03:00:00 8.2 10 Sur 12 Sur 0 -- -- 84
2019-04-13 02:00:00 8.6 3 Sur 12 Sudeste 0 -- -- 86
2019-04-13 01:00:00 9.1 10 Sudeste 13 Sur 0 -- -- 88
2019-04-13 00:00:00 10 5 Sudoeste 13 Oeste 0 -- -- 88
2019-04-12 23:00:00 10 3 Sur 10 Sudoeste 0 -- -- 87
2019-04-12 22:00:00 10.5 8 Oeste 10 Oeste 0 -- -- 91
2019-04-12 21:00:00 12 5 Oeste 14 Este 0 -- -- 86
2019-04-12 20:00:00 13.4 10 Nordeste 21 Este 0 -- -- 81
2019-04-12 19:00:00 14.2 12 Nordeste 24 Este 0 -- -- 77
2019-04-12 18:00:00 15.1 14 Este 28 Nordeste 0 -- -- 76
2019-04-12 17:00:00 14.8 19 Este 31 Este 0 -- -- 75
2019-04-12 16:00:00 14.7 17 Nordeste 29 Este 0 -- -- 74
2019-04-12 15:00:00 14.5 14 Nordeste 26 Nordeste 0 -- -- 74
2019-04-12 14:00:00 13.5 15 Nordeste 24 Este 0 -- -- 71
2019-04-12 13:00:00 13.5 13 Nordeste 21 Este 0 -- -- 74
2019-04-12 12:00:00 13 9 Nordeste 13 Nordeste 0 -- -- 78
2019-04-12 11:00:00 11.6 4 Nordeste 8 Nordeste 0 -- -- 80
2019-04-12 10:00:00 10.8 4 Sudoeste 14 Sur 0 -- -- 87
2019-04-12 09:00:00 7.9 9 Sur 12 Sudeste 0 -- -- 97
2019-04-12 08:00:00 6.2 9 Sur 13 Sur 0 -- -- 96
2019-04-12 07:00:00 6 3 Sur 6 Sudeste 0 -- -- 95
2019-04-12 06:00:00 6.5 4 Sur 9 Sur 0 -- -- 95
2019-04-12 05:00:00 7.2 6 Sur 9 Sudeste 0 -- -- 94
2019-04-12 04:00:00 8.9 5 Sudeste 7 Sudeste 0 -- -- 95
2019-04-12 03:00:00 8.7 5 Sur 8 Sudeste 0 -- -- 95
2019-04-12 02:00:00 8.1 5 Sur 8 Sudeste 0 -- -- 95
2019-04-12 01:00:00 8.1 5 Sur 9 Sur 0 -- -- 94
2019-04-12 00:00:00 9 6 Sur 9 Sudeste 0 -- -- 93
2019-04-11 23:00:00 9.1 6 Sudeste 8 Sudeste 0 -- -- 91
2019-04-11 22:00:00 10.1 4 Sudeste 8 Sudeste 0 -- -- 88
2019-04-11 21:00:00 11.4 6 Este 13 Nordeste 0 -- -- 83
2019-04-11 20:00:00 12.6 8 Nordeste 15 Nordeste 0 -- -- 80
2019-04-11 19:00:00 13.2 10 Nordeste 16 Nordeste 0 -- -- 76
2019-04-11 18:00:00 13.5 9 Nordeste 19 Nordeste 0 -- -- 76
2019-04-11 17:00:00 13.7 10 Nordeste 18 Norte 0 -- -- 73
2019-04-11 16:00:00 14 9 Norte 19 Noroeste 0 -- -- 73
2019-04-11 15:00:00 13.7 9 Norte 15 Noroeste 0 -- -- 78
2019-04-11 14:00:00 12.6 9 Noroeste 16 Norte 0 -- -- 77
2019-04-11 13:00:00 13 11 Noroeste 18 Noroeste 0 -- -- 74
2019-04-11 12:00:00 13 8 Norte 13 Norte 0 -- -- 73
2019-04-11 11:00:00 11.4 6 Oeste 10 Oeste 0 -- -- 78
2019-04-11 10:00:00 11.1 5 Sudeste 12 Sudeste 0 -- -- 88
2019-04-11 09:00:00 7.6 10 Sur 13 Sur 0 -- -- 96
2019-04-11 08:00:00 6.9 11 Sur 15 Sur 0 -- -- 95
2019-04-11 07:00:00 7.2 10 Sur 12 Sur 0 -- -- 95
2019-04-11 06:00:00 7.9 6 Sur 11 Sudeste 0 -- -- 95
2019-04-11 05:00:00 8.3 5 Sur 10 Sudeste 0 -- -- 95
2019-04-11 04:00:00 7.5 6 Sur 9 Sur 0 -- -- 95
2019-04-11 03:00:00 7.7 5 Sur 9 Sudeste 0 -- -- 94
2019-04-11 02:00:00 8.8 6 Sur 8 Sur 0 -- -- 92
2019-04-11 01:00:00 9.8 2 Sudoeste 5 Sur 0 -- -- 93
2019-04-11 00:00:00 9.6 3 Sudoeste 5 Sudoeste 0 -- -- 91
2019-04-10 23:00:00 10.3 0 Calma 5 Oeste 0 -- -- 89
2019-04-10 22:00:00 10.7 3 Oeste 8 Norte 0 -- -- 87
2019-04-10 21:00:00 11.9 3 Norte 12 Norte 0 -- -- 84
2019-04-10 20:00:00 12.8 5 Norte 14 Norte 0 -- -- 81
2019-04-10 19:00:00 13.6 6 Norte 15 Norte 0 -- -- 79
2019-04-10 18:00:00 13.6 9 Norte 18 Norte 0 -- -- 78
2019-04-10 17:00:00 13.9 9 Norte 21 Norte 0 -- -- 76
2019-04-10 16:00:00 14.5 9 Norte 22 Nordeste 0 -- -- 76
2019-04-10 15:00:00 14.2 13 Norte 22 Norte 0 -- -- 75
2019-04-10 14:00:00 14.2 13 Nordeste 23 Norte 0 -- -- 77
2019-04-10 13:00:00 13.1 11 Norte 25 Norte 0 -- -- 82
2019-04-10 12:00:00 12.6 14 Noroeste 26 Noroeste 0 -- -- 87
2019-04-10 11:00:00 11.9 18 Noroeste 32 Noroeste 0 -- -- 87
2019-04-10 10:00:00 11.1 16 Noroeste 30 Noroeste 0.6 -- -- 92
2019-04-10 09:00:00 10.8 20 Noroeste 35 Noroeste 0.6 -- -- 91
2019-04-10 08:00:00 10.2 15 Oeste 28 Oeste 0 -- -- 89
2019-04-10 07:00:00 10 15 Oeste 27 Oeste 3 -- -- 92
2019-04-10 06:00:00 10.3 18 Oeste 30 Oeste 0.4 -- -- 87
2019-04-10 05:00:00 10.3 18 Sudoeste 32 Oeste 0.6 -- -- 85
2019-04-10 04:00:00 9.8 17 Sudoeste 34 Sudoeste 2 -- -- 87
2019-04-10 03:00:00 9.9 11 Oeste 28 Oeste 2.4 -- -- 84
2019-04-10 02:00:00 10.9 14 Sudoeste 28 Sudoeste 0 -- -- 73
2019-04-10 01:00:00 10.5 16 Sur 35 Sur 0 -- -- 76
2019-04-10 00:00:00 10.3 14 Sur 27 Sur 0 -- -- 74
2019-04-09 23:00:00 9.9 9 Sur 19 Sur 0 -- -- 78
2019-04-09 22:00:00 10.9 10 Sudoeste 32 Sudoeste 0 -- -- 76
2019-04-09 21:00:00 11.6 13 Sudoeste 35 Sudoeste 0 -- -- 75
2019-04-09 20:00:00 11.6 16 Sudoeste 41 Sudoeste 0.2 -- -- 77
2019-04-09 19:00:00 12.7 17 Sudoeste 32 Sudoeste 0.2 -- -- 71
2019-04-09 18:00:00 13.4 16 Sudoeste 40 Sudoeste 1 -- -- 75
2019-04-09 17:00:00 13 9 Sudoeste 39 Sudoeste 1.6 -- -- 76
2019-04-09 16:00:00 14.9 16 Sur 37 Sur 0 -- -- 58
2019-04-09 15:00:00 14.9 19 Sudoeste 44 Sudoeste 0 -- -- 59
2019-04-09 14:00:00 14.9 19 Sudoeste 43 Oeste 0 -- -- 60
2019-04-09 13:00:00 12.9 23 Sudoeste 42 Sudoeste 0 -- -- 65
2019-04-09 12:00:00 11.9 22 Sur 35 Sur 0 -- -- 75
2019-04-09 11:00:00 11.2 11 Sudoeste 35 Sur 0 -- -- 74
2019-04-09 10:00:00 10.1 19 Sur 33 Sur 0 -- -- 74
2019-04-09 09:00:00 9.2 20 Sur 29 Sur 0 -- -- 81
2019-04-09 08:00:00 9.6 15 Sudoeste 28 Sudoeste 0 -- -- 76
2019-04-09 07:00:00 9.7 20 Sur 36 Sudoeste 0 -- -- 76
2019-04-09 06:00:00 9.9 17 Sur 33 Sudoeste 0 -- -- 74
2019-04-09 05:00:00 9.4 18 Sur 43 Sur 1.4 -- -- 83
2019-04-09 04:00:00 10.5 18 Sudoeste 32 Sudoeste 0 -- -- 73
2019-04-09 03:00:00 10.2 12 Sur 26 Sur 0 -- -- 76
2019-04-09 02:00:00 10.3 13 Sur 33 Sur 0 -- -- 72
2019-04-09 01:00:00 10.3 18 Sur 33 Sur 0 -- -- 74
2019-04-09 00:00:00 11.5 9 Sudoeste 35 Sudoeste 0 -- -- 71
2019-04-08 23:00:00 12.1 15 Sudoeste 32 Sur 0 -- -- 63
2019-04-08 22:00:00 11.6 10 Sur 22 Sudoeste 0 -- -- 65
2019-04-08 21:00:00 11.6 11 Sur 67 Sudoeste 0.6 -- -- 69
2019-04-08 20:00:00 14.2 9 Sudoeste 38 Sudoeste 0 -- -- 58
2019-04-08 19:00:00 14.6 14 Sur 29 Sur 0 -- -- 60
2019-04-08 18:00:00 13.5 9 Sur 42 Sur 0.8 -- -- 68
2019-04-08 17:00:00 15.3 24 Oeste 39 Sur 0 -- -- 52
2019-04-08 16:00:00 16.5 17 Sudoeste 41 Sudoeste 0 -- -- 50
2019-04-08 15:00:00 16.4 12 Sudoeste 42 Sudoeste 0 -- -- 53
2019-04-08 14:00:00 15.8 19 Sudoeste 40 Sudoeste 0 -- -- 52
2019-04-08 13:00:00 14.9 16 Sudoeste 36 Sudoeste 0 -- -- 57
2019-04-08 12:00:00 14 17 Sudoeste 42 Sudoeste 0 -- -- 61
2019-04-08 11:00:00 12.7 18 Sudoeste 35 Sudoeste 0 -- -- 67
2019-04-08 10:00:00 11.6 19 Sudoeste 31 Sudoeste 0 -- -- 71
2019-04-08 09:00:00 10.6 15 Sudoeste 27 Sur 0 -- -- 74
2019-04-08 08:00:00 10 12 Sudoeste 29 Sudoeste 0 -- -- 76
2019-04-08 07:00:00 10.7 14 Sudoeste 30 Sudoeste 0 -- -- 74
2019-04-08 06:00:00 10.5 10 Sur 17 Sudoeste 0 -- -- 81
2019-04-08 05:00:00 11.2 8 Sudoeste 19 Sudoeste 0 -- -- 83
2019-04-08 04:00:00 11.3 9 Sudoeste 23 Sudoeste 0.4 -- -- 84
2019-04-08 03:00:00 11 16 Sudoeste 26 Oeste 0.8 -- -- 86
2019-04-08 02:00:00 11.9 9 Oeste 31 Sudoeste 0 -- -- 86
2019-04-08 01:00:00 11.8 17 Sur 31 Sur 0 -- -- 82
2019-04-08 00:00:00 12.1 19 Sur 46 Sur 0.2 -- -- 82
2019-04-07 23:00:00 12.4 26 Sur 53 Sur 0 -- -- 76
2019-04-07 22:00:00 11.7 31 Sur 45 Sur 0.2 -- -- 78
2019-04-07 21:00:00 10.8 25 Sur 40 Sur 0 -- -- 79
2019-04-07 20:00:00 10.1 14 Sur 22 Sur 0.4 -- -- 86
2019-04-07 19:00:00 10.2 11 Sudeste 17 Este 1.2 -- -- 90
2019-04-07 18:00:00 10.6 10 Sur 45 Sudoeste 1 -- -- 81
2019-04-07 17:00:00 13.8 23 Sur 41 Sudoeste 0 -- -- 56
2019-04-07 16:00:00 15.5 16 Sudoeste 36 Sur 0 -- -- 51
2019-04-07 15:00:00 15.5 16 Sudoeste 31 Sudoeste 0 -- -- 53
2019-04-07 14:00:00 14.6 16 Sur 40 Sur 0 -- -- 57
2019-04-07 13:00:00 12.9 21 Sur 36 Sur 0 -- -- 60
2019-04-07 12:00:00 12.8 22 Sur 35 Sur 0 -- -- 64
2019-04-07 11:00:00 10.8 21 Sur 36 Sur 0 -- -- 68
2019-04-07 10:00:00 9.9 21 Sur 38 Sudoeste 0 -- -- 71
2019-04-07 09:00:00 8.1 26 Sur 39 Sur 0 -- -- 76
2019-04-07 08:00:00 7.6 24 Sur 36 Sur 0 -- -- 77
2019-04-07 07:00:00 7.1 24 Sur 37 Sur 0 -- -- 77
2019-04-07 06:00:00 7 30 Sur 44 Sur 0 -- -- 77
2019-04-07 05:00:00 7 26 Sur 39 Sur 0 -- -- 77
2019-04-07 04:00:00 7.1 25 Sur 35 Sur 0 -- -- 78
2019-04-07 03:00:00 7.3 18 Sur 33 Sur 0 -- -- 78
2019-04-07 02:00:00 7.7 23 Sur 32 Sur 0 -- -- 79
2019-04-07 01:00:00 8 13 Sudoeste 30 Sur 0 -- -- 76
2019-04-07 00:00:00 8 12 Sudoeste 24 Sudoeste 0.4 -- -- 78
2019-04-06 23:00:00 8.4 11 Sudoeste 23 Sur 0.6 -- -- 78
2019-04-06 22:00:00 9.2 13 Sudoeste 24 Sudoeste 0 -- -- 70
2019-04-06 21:00:00 9.1 9 Sudoeste 30 Sudoeste 0 -- -- 79
2019-04-06 20:00:00 9.3 17 Sudoeste 33 Oeste 0 -- -- 77
2019-04-06 19:00:00 9.2 14 Oeste 34 Oeste 0.4 -- -- 82
2019-04-06 18:00:00 10 20 Oeste 36 Oeste 0 -- -- 78
2019-04-06 17:00:00 10.2 19 Oeste 36 Oeste 0 -- -- 83
2019-04-06 16:00:00 10.2 16 Noroeste 26 Noroeste 0.8 -- -- 79
2019-04-06 15:00:00 9 9 Sudoeste 30 Oeste 1.2 -- -- 90
2019-04-06 14:00:00 10.5 10 Sudoeste 28 Sur 0.2 -- -- 78
2019-04-06 13:00:00 8.6 17 Sur 33 Sudoeste 1 -- -- 82
2019-04-06 12:00:00 10.2 19 Sudoeste 35 Sudoeste 0 -- -- 68
2019-04-06 11:00:00 9 25 Sur 45 Sur 0 -- -- 70
2019-04-06 10:00:00 8.5 26 Sur 51 Sur 0 -- -- 70
2019-04-06 09:00:00 8.1 26 Sur 44 Sur 0 -- -- 70
2019-04-06 08:00:00 7.5 18 Sur 30 Sur 0 -- -- 70
2019-04-06 07:00:00 7.2 16 Sur 35 Sur 0 -- -- 71
2019-04-06 06:00:00 7 23 Sur 47 Sur 0 -- -- 75
2019-04-06 05:00:00 7.5 22 Sur 41 Sur 0 -- -- 74
2019-04-06 04:00:00 7.8 22 Sur 42 Sur 0 -- -- 75
2019-04-06 03:00:00 8.3 22 Sur 41 Sudoeste 0 -- -- 72
2019-04-06 02:00:00 8.7 23 Sur 42 Sudoeste 0 -- -- 73
2019-04-06 01:00:00 8.7 19 Sur 41 Sur 0 -- -- 73
2019-04-06 00:00:00 8.6 22 Sur 39 Sudoeste 0 -- -- 72
2019-04-05 23:00:00 8.6 20 Sur 36 Sur 0 -- -- 73
2019-04-05 22:00:00 8.9 16 Sur 26 Sur 0 -- -- 69
2019-04-05 21:00:00 9.6 11 Sudoeste 22 Oeste 0 -- -- 70
2019-04-05 20:00:00 10.5 9 Sudoeste 20 Sudoeste 0 -- -- 68
2019-04-05 19:00:00 10.6 10 Oeste 31 Oeste 0 -- -- 67
2019-04-05 18:00:00 10.6 18 Oeste 35 Oeste 0 -- -- 71
2019-04-05 17:00:00 8.8 20 Sudoeste 45 Sudoeste 2 -- -- 80
2019-04-05 16:00:00 12.2 15 Sudoeste 41 Sudoeste 0 -- -- 65
2019-04-05 15:00:00 11.3 21 Sudoeste 57 Oeste 0 -- -- 62
2019-04-05 14:00:00 12.6 26 Sudoeste 62 Sudoeste 0 -- -- 53
2019-04-05 13:00:00 12.1 21 Sur 49 Sur 0 -- -- 52
2019-04-05 12:00:00 10.3 24 Sur 50 Sur 0 -- -- 59
2019-04-05 11:00:00 10.1 24 Sur 47 Sudoeste 0 -- -- 60
2019-04-05 10:00:00 8.7 24 Sur 46 Sur 0 -- -- 67
2019-04-05 09:00:00 7.1 18 Sur 35 Sur 0 -- -- 71
2019-04-05 08:00:00 6 13 Sur 28 Sur 0 -- -- 76
2019-04-05 07:00:00 6.6 20 Sur 50 Sudoeste 0 -- -- 74
2019-04-05 06:00:00 7.1 34 Sur 51 Sur 0 -- -- 72
2019-04-05 05:00:00 7.4 22 Sur 38 Sur 0 -- -- 74
2019-04-05 04:00:00 7.1 17 Sur 33 Sur 0 -- -- 78
2019-04-05 03:00:00 7.1 19 Sur 33 Sudoeste 0 -- -- 78
2019-04-05 02:00:00 7.4 22 Sur 40 Sur 0 -- -- 78
2019-04-05 01:00:00 7.4 23 Sur 36 Sur 0.2 -- -- 78
2019-04-05 00:00:00 8.5 22 Sur 37 Sur 0 -- -- 78
2019-04-04 23:00:00 9.1 19 Sur 41 Sur 0 -- -- 72
2019-04-04 22:00:00 9.1 22 Sudoeste 50 Sur 0 -- -- 72
2019-04-04 21:00:00 9.6 26 Sur 51 Sudoeste 0 -- -- 72
2019-04-04 20:00:00 10.2 21 Sudoeste 55 Sur 0 -- -- 71
2019-04-04 19:00:00 10.6 19 Sudoeste 49 Sur 0 -- -- 72
2019-04-04 18:00:00 10.7 28 Sudoeste 59 Sudoeste 0 -- -- 68
2019-04-04 17:00:00 11 33 Sudoeste 61 Sudoeste 0 -- -- 64
2019-04-04 16:00:00 11.1 31 Sur 69 Sur 0 -- -- 65
2019-04-04 15:00:00 11.3 26 Sur 62 Sur 0 -- -- 62
2019-04-04 14:00:00 11 32 Sur 61 Sur 0 -- -- 65
2019-04-04 13:00:00 11.1 32 Sur 55 Sur 0 -- -- 63
2019-04-04 12:00:00 11 28 Sur 54 Sudoeste 0 -- -- 65
2019-04-04 11:00:00 9.5 22 Sur 45 Sur 0 -- -- 70
2019-04-04 10:00:00 7.6 22 Sur 37 Sur 0 -- -- 77
2019-04-04 09:00:00 6.6 21 Sur 35 Sur 0 -- -- 79
2019-04-04 08:00:00 6 21 Sur 41 Sur 0 -- -- 80
2019-04-04 07:00:00 5.7 25 Sur 34 Sur 0 -- -- 81
2019-04-04 06:00:00 6 21 Sur 31 Sur 0 -- -- 80
2019-04-04 05:00:00 5.5 17 Sur 30 Sur 0 -- -- 81
2019-04-04 04:00:00 5.6 18 Sur 31 Sur 0.2 -- -- 82
2019-04-04 03:00:00 6.6 10 Sudoeste 29 Sudoeste 0.2 -- -- 78
2019-04-04 02:00:00 6.4 13 Sur 21 Sur 0.2 -- -- 80
2019-04-04 01:00:00 7.3 7 Oeste 28 Sudoeste 0 -- -- 71
2019-04-04 00:00:00 7.4 14 Sudoeste 25 Sudoeste 0 -- -- 74
2019-04-03 23:00:00 6.9 14 Sudoeste 26 Sudoeste 0 -- -- 76
2019-04-03 22:00:00 6.3 11 Sudoeste 21 Oeste 0 -- -- 80
2019-04-03 21:00:00 7.1 21 Oeste 45 Oeste 0.6 -- -- 78
2019-04-03 20:00:00 6.8 11 Sudoeste 24 Oeste 1.4 -- -- 82
2019-04-03 19:00:00 8.2 13 Oeste 36 Oeste 1 -- -- 79
2019-04-03 18:00:00 9.1 20 Oeste 42 Noroeste 0 -- -- 73
2019-04-03 17:00:00 11 17 Oeste 45 Noroeste 0 -- -- 70
2019-04-03 16:00:00 9.7 29 Noroeste 50 Noroeste 0 -- -- 75
2019-04-03 15:00:00 11.2 22 Noroeste 41 Noroeste 0 -- -- 65
2019-04-03 14:00:00 10.9 23 Noroeste 39 Noroeste 0 -- -- 65
2019-04-03 13:00:00 9.1 18 Oeste 39 Sudoeste 0 -- -- 80
2019-04-03 12:00:00 8.7 24 Oeste 40 Oeste 0.6 -- -- 80
2019-04-03 11:00:00 8.1 14 Sudoeste 29 Oeste 0.4 -- -- 82
2019-04-03 10:00:00 8 15 Sudoeste 39 Oeste 0.4 -- -- 83
2019-04-03 09:00:00 6.7 15 Oeste 49 Oeste 0.2 -- -- 83
2019-04-03 08:00:00 7.2 14 Oeste 27 Sudoeste 0.2 -- -- 81
2019-04-03 07:00:00 7 19 Oeste 36 Oeste 0.6 -- -- 87
2019-04-03 06:00:00 7.4 16 Oeste 29 Oeste 0.4 -- -- 83
2019-04-03 05:00:00 7.4 10 Sudoeste 31 Oeste 0.6 -- -- 84
2019-04-03 04:00:00 8.3 14 Oeste 24 Oeste 0 -- -- 80
2019-04-03 03:00:00 8 13 Oeste 28 Oeste 0.6 -- -- 86
2019-04-03 02:00:00 8.2 10 Oeste 20 Oeste 0.2 -- -- 85
2019-04-03 01:00:00 8.4 9 Oeste 19 Noroeste 0.6 -- -- 88
2019-04-03 00:00:00 8.6 10 Oeste 20 Oeste 0 -- -- 79
2019-04-02 23:00:00 9 12 Oeste 18 Oeste 0 -- -- 82
2019-04-02 22:00:00 9.5 11 Oeste 23 Noroeste 0 -- -- 83
2019-04-02 21:00:00 10.4 15 Noroeste 26 Noroeste 0 -- -- 77
2019-04-02 20:00:00 11 15 Noroeste 29 Noroeste 0 -- -- 79
2019-04-02 19:00:00 11.6 16 Noroeste 27 Noroeste 0 -- -- 82
2019-04-02 18:00:00 11.9 14 Noroeste 28 Noroeste 0 -- -- 75
2019-04-02 17:00:00 11.6 14 Noroeste 24 Noroeste 0 -- -- 79
2019-04-02 16:00:00 11.8 11 Oeste 18 Noroeste 0 -- -- 81
2019-04-02 15:00:00 11.6 14 Noroeste 22 Noroeste 0 -- -- 84
2019-04-02 14:00:00 12.7 13 Noroeste 21 Noroeste 0 -- -- 81
2019-04-02 13:00:00 12.6 11 Oeste 18 Noroeste 0 -- -- 76
2019-04-02 12:00:00 13.3 8 Oeste 15 Oeste 0 -- -- 75
2019-04-02 11:00:00 12.1 5 Oeste 12 Oeste 0 -- -- 80
2019-04-02 10:00:00 11.3 6 Oeste 12 Sudoeste 0 -- -- 84
2019-04-02 09:00:00 11 6 Oeste 13 Sudoeste 0 -- -- 87
2019-04-02 08:00:00 10.9 8 Oeste 16 Oeste 0 -- -- 88
2019-04-02 07:00:00 10.9 8 Oeste 15 Oeste 0 -- -- 91
2019-04-02 06:00:00 11.1 6 Oeste 14 Oeste 0 -- -- 93
2019-04-02 05:00:00 11.3 9 Oeste 12 Oeste 0 -- -- 93
2019-04-02 04:00:00 11.3 9 Oeste 14 Oeste 0 -- -- 93
2019-04-02 03:00:00 10.4 8 Oeste 13 Oeste 0 -- -- 93
2019-04-02 02:00:00 11 9 Oeste 11 Oeste 0 -- -- 92
2019-04-02 01:00:00 11.3 5 Sudoeste 10 Oeste 0 -- -- 92
2019-04-02 00:00:00 11.1 9 Oeste 13 Oeste 0 -- -- 92
2019-04-01 23:00:00 11.5 4 Oeste 7 Oeste 0 -- -- 91
2019-04-01 22:00:00 11.8 3 Sudoeste 8 Oeste 0 -- -- 91
2019-04-01 21:00:00 12.7 3 Noroeste 8 Noroeste 0 -- -- 88
2019-04-01 20:00:00 13.6 4 Norte 9 Noroeste 0 -- -- 86
2019-04-01 19:00:00 13.9 6 Noroeste 14 Oeste 0 -- -- 87
2019-04-01 18:00:00 14.3 9 Noroeste 17 Noroeste 0 -- -- 85
2019-04-01 17:00:00 14.9 10 Noroeste 15 Noroeste 0 -- -- 84
2019-04-01 16:00:00 15 9 Noroeste 16 Noroeste 0 -- -- 82
2019-04-01 15:00:00 14.6 8 Noroeste 14 Norte 0 -- -- 85
2019-04-01 14:00:00 15.1 5 Norte 14 Noroeste 0 -- -- 84
2019-04-01 13:00:00 14.6 6 Norte 12 Norte 0 -- -- 82
2019-04-01 12:00:00 13.7 5 Norte 10 Nordeste 0 -- -- 84
2019-04-01 11:00:00 12.3 8 Noroeste 14 Norte 0 -- -- 86
2019-04-01 10:00:00 11.3 2 Noroeste 8 Sur 0 -- -- 94
2019-04-01 09:00:00 8.6 8 Sur 10 Sur 0 -- -- 97
2019-04-01 08:00:00 7.7 4 Sur 12 Sudeste 0 -- -- 97
2019-04-01 07:00:00 7.9 4 Sur 9 Sur 0 -- -- 95
2019-04-01 06:00:00 8.9 6 Sur 8 Sur 0 -- -- 96
2019-04-01 05:00:00 9.6 3 Sudeste 9 Sur 0 -- -- 97
2019-04-01 04:00:00 9.3 4 Sur 6 Sur 0 -- -- 95
2019-04-01 03:00:00 9.7 3 Sudoeste 5 Oeste 0 -- -- 95
2019-04-01 02:00:00 11 5 Oeste 9 Oeste 0 -- -- 96
2019-04-01 01:00:00 11.6 7 Oeste 10 Oeste 0 -- -- 96
2019-04-01 00:00:00 12.1 7 Oeste 11 Oeste 0 -- -- 96
2019-03-31 23:00:00 11.8 6 Oeste 9 Oeste 0 -- -- 95
2019-03-31 22:00:00 12.4 3 Noroeste 5 Norte 0 -- -- 92
2019-03-31 21:00:00 12.5 2 Nordeste 13 Nordeste 0 -- -- 90
2019-03-31 20:00:00 13 8 Nordeste 15 Norte 0 -- -- 88
2019-03-31 19:00:00 13.6 7 Nordeste 17 Nordeste 0 -- -- 84
2019-03-31 18:00:00 14 9 Nordeste 19 Nordeste 0 -- -- 83
2019-03-31 17:00:00 14 8 Nordeste 19 Nordeste 0 -- -- 83
2019-03-31 16:00:00 14 13 Nordeste 22 Este 0 -- -- 83
2019-03-31 15:00:00 14.2 10 Norte 17 Nordeste 0 -- -- 84
2019-03-31 14:00:00 13.6 9 Nordeste 18 Nordeste 0 -- -- 82
2019-03-31 13:00:00 14.2 8 Nordeste 16 Nordeste 0 -- -- 77
2019-03-31 12:00:00 13.4 5 Este 14 Este 0 -- -- 80
2019-03-31 11:00:00 12.4 6 Sur 9 Sur 0 -- -- 83
2019-03-31 10:00:00 11.2 6 Sur 11 Sur 0 -- -- 90
2019-03-31 09:00:00 10 10 Sudeste 13 Sur 0 -- -- 93
2019-03-31 08:00:00 10 10 Sur 13 Sur 0 -- -- 95
2019-03-31 07:00:00 10 7 Sudeste 9 Sudeste 0 -- -- 96
2019-03-31 06:00:00 10 3 Sudoeste 5 Sudoeste 0 -- -- 97
2019-03-31 05:00:00 8.5 4 Sudoeste 11 Sur 0 -- -- 97
2019-03-31 03:00:00 7.7 9 Sudeste 11 Este 0 -- -- 95
2019-03-31 01:00:00 9 8 Este 12 Sudeste 0 -- -- 96
2019-03-31 00:00:00 8.9 7 Sudeste 13 Sudeste 0 -- -- 95
2019-03-30 23:00:00 9 4 Oeste 12 Este 0 -- -- 92
2019-03-30 22:00:00 10.8 8 Sudeste 11 Sudeste 0 -- -- 93
2019-03-30 21:00:00 11.3 2 Nordeste 8 Nordeste 0 -- -- 94
2019-03-30 20:00:00 11 3 Noroeste 6 Noroeste 0 -- -- 93
2019-03-30 19:00:00 12.2 3 Nordeste 8 Norte 0 -- -- 90
2019-03-30 18:00:00 12.7 4 Nordeste 10 Nordeste 0 -- -- 89
2019-03-30 17:00:00 12.6 5 Nordeste 13 Nordeste 0 -- -- 87
2019-03-30 16:00:00 13.3 7 Norte 17 Norte 0 -- -- 85
2019-03-30 15:00:00 14 10 Nordeste 17 Nordeste 0 -- -- 82
2019-03-30 14:00:00 14.7 9 Nordeste 15 Norte 0 -- -- 77
2019-03-30 13:00:00 14.5 5 Norte 12 Noroeste 0 -- -- 77
2019-03-30 12:00:00 13.6 7 Norte 12 Norte 0 -- -- 82
2019-03-30 11:00:00 13.7 4 Oeste 10 Oeste 0 -- -- 80
2019-03-30 10:00:00 11.2 5 Noroeste 9 Noroeste 0 -- -- 90
2019-03-30 09:00:00 9.8 6 Noroeste 9 Noroeste 0 -- -- 97
2019-03-30 08:00:00 6.6 2 Sur 9 Sudeste 0 -- -- 97
2019-03-30 07:00:00 6.5 9 Sur 11 Sur 0 -- -- 97
2019-03-30 06:00:00 6.5 4 Sur 7 Sur 0 -- -- 96
2019-03-30 05:00:00 7 5 Sur 9 Sur 0 -- -- 96
2019-03-30 04:00:00 6.8 0 Calma 7 Sur 0 -- -- 95
2019-03-30 03:00:00 7.4 5 Sur 10 Sur 0 -- -- 92
2019-03-30 02:00:00 8.8 4 Sur 8 Sur 0 -- -- 89
2019-03-30 01:00:00 11.2 4 Sudeste 8 Sur 0 -- -- 88
2019-03-30 00:00:00 11.3 4 Sudoeste 10 Sur 0 -- -- 88
2019-03-29 23:00:00 11.6 2 Sudoeste 7 Sudoeste 0 -- -- 89
2019-03-29 22:00:00 11.6 3 Sudeste 4 Sudeste 0 -- -- 90
2019-03-29 21:00:00 11.6 0 Calma 5 Oeste 0 -- -- 91
2019-03-29 20:00:00 11.5 0 Calma 14 Nordeste 0 -- -- 89
2019-03-29 19:00:00 12.2 8 Nordeste 17 Nordeste 0 -- -- 87
2019-03-29 18:00:00 12.6 10 Nordeste 19 Nordeste 0 -- -- 84
2019-03-29 17:00:00 13.3 14 Nordeste 22 Nordeste 0 -- -- 80
2019-03-29 16:00:00 13.7 13 Nordeste 24 Nordeste 0 -- -- 81
2019-03-29 15:00:00 13.6 14 Nordeste 26 Nordeste 0 -- -- 81
2019-03-29 14:00:00 13.6 14 Nordeste 24 Nordeste 0 -- -- 78
2019-03-29 13:00:00 13.4 13 Nordeste 21 Nordeste 0 -- -- 74
2019-03-29 12:00:00 12.9 10 Nordeste 16 Nordeste 0 -- -- 72
2019-03-29 11:00:00 12.4 6 Nordeste 11 Nordeste 0 -- -- 73
2019-03-29 10:00:00 11.7 4 Norte 9 Nordeste 0 -- -- 81
2019-03-29 09:00:00 9.7 3 Sudeste 9 Sur 0 -- -- 94
2019-03-29 08:00:00 6.1 5 Sur 12 Sudeste 0 -- -- 97
2019-03-29 07:00:00 5.9 11 Sur 17 Sur 0 -- -- 96
2019-03-29 06:00:00 5.6 8 Sur 12 Sur 0 -- -- 95
2019-03-29 05:00:00 6.2 4 Sur 13 Sudeste 0 -- -- 95
2019-03-29 04:00:00 6.4 5 Sudoeste 12 Oeste 0 -- -- 93
2019-03-29 03:00:00 6.7 3 Sudoeste 8 Oeste 0 -- -- 93
2019-03-29 02:00:00 7 3 Sudoeste 6 Oeste 0 -- -- 91
2019-03-29 01:00:00 7.4 5 Sudeste 9 Sudeste 0 -- -- 89
2019-03-29 00:00:00 8.8 7 Sudeste 11 Sudeste 0 -- -- 89
2019-03-28 23:00:00 9.8 5 Sudeste 23 Este 0 -- -- 86
2019-03-28 22:00:00 10.4 12 Este 29 Este 0 -- -- 86
2019-03-28 21:00:00 11 19 Este 37 Este 0 -- -- 84
2019-03-28 20:00:00 11.3 20 Este 37 Este 0 -- -- 82
2019-03-28 19:00:00 12.1 24 Este 45 Este 0 -- -- 80
2019-03-28 18:00:00 12.8 27 Este 45 Este 0 -- -- 73
2019-03-28 17:00:00 13.3 28 Este 47 Nordeste 0 -- -- 73
2019-03-28 16:00:00 13.5 31 Este 51 Este 0 -- -- 73
2019-03-28 15:00:00 14 28 Este 45 Este 0 -- -- 72
2019-03-28 14:00:00 14.3 22 Este 42 Nordeste 0 -- -- 73
2019-03-28 13:00:00 13.5 26 Nordeste 43 Este 0 -- -- 74
2019-03-28 12:00:00 13.3 28 Este 42 Este 0 -- -- 75
2019-03-28 11:00:00 13.3 22 Este 33 Nordeste 0 -- -- 72
2019-03-28 10:00:00 12.1 8 Nordeste 21 Este 0 -- -- 71
2019-03-28 09:00:00 10 3 Este 6 Este 0 -- -- 68
2019-03-28 08:00:00 6.4 4 Sudeste 10 Sudeste 0 -- -- 79
2019-03-28 07:00:00 6.1 8 Sudeste 16 Sudeste 0 -- -- 81
2019-03-28 06:00:00 6.4 8 Sudeste 10 Sudeste 0 -- -- 82
2019-03-28 05:00:00 7 5 Sudeste 14 Sudeste 0 -- -- 80
2019-03-28 04:00:00 7.5 6 Sudeste 17 Este 0 -- -- 81
2019-03-28 03:00:00 8.1 11 Este 21 Este 0 -- -- 80
2019-03-28 02:00:00 8.4 10 Este 22 Este 0 -- -- 81
2019-03-28 01:00:00 8.9 10 Este 27 Este 0 -- -- 81
2019-03-28 00:00:00 9.7 17 Este 33 Este 0 -- -- 80
2019-03-27 23:00:00 10 18 Este 41 Nordeste 0 -- -- 80
2019-03-27 22:00:00 10.3 25 Este 48 Este 0 -- -- 80
2019-03-27 21:00:00 10.5 21 Este 49 Este 0 -- -- 80
2019-03-27 20:00:00 10.9 29 Este 49 Este 0 -- -- 77
2019-03-27 19:00:00 11.7 24 Este 51 Este 0 -- -- 75
2019-03-27 18:00:00 12.4 28 Este 54 Nordeste 0 -- -- 73
2019-03-27 17:00:00 12.9 34 Este 58 Este 0 -- -- 71
2019-03-27 16:00:00 13.2 35 Este 55 Nordeste 0 -- -- 70
2019-03-27 15:00:00 13.6 35 Este 55 Este 0 -- -- 69
2019-03-27 14:00:00 13.5 38 Este 57 Nordeste 0 -- -- 69
2019-03-27 13:00:00 13.5 36 Este 56 Este 0 -- -- 72
2019-03-27 12:00:00 13.5 31 Este 48 Este 0 -- -- 70
2019-03-27 11:00:00 13.3 28 Este 44 Nordeste 0 -- -- 66
2019-03-27 10:00:00 12.6 23 Este 39 Este 0 -- -- 68
2019-03-27 09:00:00 10.8 5 Este 11 Este 0 -- -- 66
2019-03-27 08:00:00 7.6 5 Oeste 8 Oeste 0 -- -- 77
2019-03-27 07:00:00 7.4 6 Sur 11 Sudeste 0 -- -- 74
2019-03-27 06:00:00 7 6 Sur 11 Sur 0 -- -- 74
2019-03-27 05:00:00 7.3 6 Sudeste 10 Sudeste 0 -- -- 72
2019-03-27 04:00:00 7.3 6 Sudeste 16 Sur 0 -- -- 68
2019-03-27 03:00:00 7.9 8 Sudeste 21 Sudeste 0 -- -- 68
2019-03-27 02:00:00 8.7 15 Este 24 Este 0 -- -- 72
2019-03-27 01:00:00 8.6 12 Este 24 Este 0 -- -- 76
2019-03-27 00:00:00 9.1 12 Este 33 Este 0 -- -- 75
2019-03-26 23:00:00 9.5 20 Este 39 Este 0 -- -- 76
2019-03-26 22:00:00 9.8 19 Este 37 Este 0 -- -- 75
2019-03-26 21:00:00 10.2 26 Este 53 Este 0 -- -- 77
2019-03-26 20:00:00 10.4 24 Este 54 Este 0 -- -- 75
2019-03-26 19:00:00 11.1 35 Este 62 Este 0 -- -- 71
2019-03-26 18:00:00 11.7 39 Este 68 Este 0 -- -- 68
2019-03-26 17:00:00 12.2 37 Este 66 Este 0 -- -- 66
2019-03-26 16:00:00 12.6 36 Este 69 Este 0 -- -- 64
2019-03-26 15:00:00 12.8 33 Este 67 Este 0 -- -- 64
2019-03-26 14:00:00 12.7 42 Este 71 Nordeste 0 -- -- 63
2019-03-26 13:00:00 12.7 43 Este 68 Este 0 -- -- 62
2019-03-26 12:00:00 12.9 41 Este 68 Este 0 -- -- 62
2019-03-26 11:00:00 12.7 42 Este 67 Nordeste 0 -- -- 58
2019-03-26 10:00:00 12.4 33 Este 52 Nordeste 0 -- -- 57
2019-03-26 09:00:00 11.7 23 Este 45 Este 0 -- -- 66
2019-03-26 08:00:00 10.2 19 Este 39 Este 0 -- -- 74
2019-03-26 07:00:00 10 20 Este 33 Este 0 -- -- 75
2019-03-26 06:00:00 10.1 21 Este 30 Este 0 -- -- 74
2019-03-26 05:00:00 10.2 17 Este 26 Nordeste 0 -- -- 74
2019-03-26 04:00:00 9.8 15 Este 25 Este 0 -- -- 72
2019-03-26 03:00:00 9 10 Este 33 Este 0 -- -- 76
2019-03-26 02:00:00 9.8 20 Este 37 Nordeste 0 -- -- 78
2019-03-26 01:00:00 10 21 Este 42 Este 0 -- -- 78
2019-03-26 00:00:00 10.2 23 Este 42 Este 0 -- -- 77
2019-03-25 23:00:00 10.5 22 Este 43 Este 0 -- -- 77
2019-03-25 22:00:00 10.6 22 Este 51 Este 0 -- -- 80
2019-03-25 21:00:00 11 31 Este 54 Nordeste 0 -- -- 79
2019-03-25 20:00:00 11.2 31 Este 53 Este 0 -- -- 80
2019-03-25 19:00:00 11.8 33 Este 57 Este 0 -- -- 78
2019-03-25 18:00:00 12.4 32 Este 57 Nordeste 0 -- -- 76
2019-03-25 17:00:00 12.9 33 Este 59 Nordeste 0 -- -- 76
2019-03-25 16:00:00 13 38 Este 62 Este 0 -- -- 78
2019-03-25 15:00:00 13.5 35 Este 57 Nordeste 0 -- -- 76
2019-03-25 14:00:00 13.9 34 Este 56 Este 0 -- -- 74
2019-03-25 13:00:00 13.9 34 Este 57 Este 0 -- -- 74
2019-03-25 12:00:00 13.8 30 Este 50 Nordeste 0 -- -- 73
2019-03-25 11:00:00 13.6 28 Este 49 Nordeste 0 -- -- 75
2019-03-25 10:00:00 12.8 26 Este 44 Nordeste 0 -- -- 80
2019-03-25 09:00:00 12.1 20 Este 41 Este 0 -- -- 84
2019-03-25 08:00:00 11.7 21 Este 36 Este 0 -- -- 83
2019-03-25 07:00:00 11.5 21 Este 36 Este 0 -- -- 82
2019-03-25 06:00:00 11.3 19 Este 41 Este 0 -- -- 83
2019-03-25 05:00:00 11.5 26 Este 42 Este 0 -- -- 81
2019-03-25 04:00:00 11.6 24 Este 43 Este 0 -- -- 82
2019-03-25 03:00:00 11.8 26 Este 46 Este 0 -- -- 83
2019-03-25 02:00:00 11.9 21 Este 39 Nordeste 0 -- -- 86
2019-03-25 01:00:00 11.9 19 Este 31 Este 0 -- -- 88
2019-03-25 00:00:00 11.4 13 Este 31 Este 0 -- -- 90
2019-03-24 23:00:00 12 16 Este 27 Este 0 -- -- 87
2019-03-24 22:00:00 12 17 Este 29 Este 0 -- -- 87
2019-03-24 21:00:00 12.1 13 Nordeste 27 Este 0 -- -- 89
2019-03-24 20:00:00 12.5 17 Este 26 Este 0 -- -- 87
2019-03-24 19:00:00 12.9 14 Nordeste 26 Nordeste 0 -- -- 89
2019-03-24 18:00:00 13.2 14 Nordeste 25 Nordeste 0 -- -- 87
2019-03-24 17:00:00 14.1 12 Nordeste 22 Este 0 -- -- 83
2019-03-24 16:00:00 14.4 10 Nordeste 22 Nordeste 0 -- -- 84
2019-03-24 15:00:00 14.2 9 Norte 19 Nordeste 0 -- -- 85
2019-03-24 14:00:00 13.8 8 Nordeste 15 Norte 0 -- -- 84
2019-03-24 13:00:00 13.6 11 Nordeste 22 Nordeste 0 -- -- 85
2019-03-24 12:00:00 13.5 14 Nordeste 22 Nordeste 0 -- -- 84
2019-03-24 11:00:00 12.7 6 Este 15 Este 0 -- -- 84
2019-03-24 10:00:00 11.2 3 Nordeste 8 Nordeste 0 -- -- 89
2019-03-24 09:00:00 10.1 0 Calma 6 Sudeste 0 -- -- 97
2019-03-24 08:00:00 8.9 5 Sur 7 Sudeste 0 -- -- 98
2019-03-24 07:00:00 8.2 3 Sur 8 Sur 0 -- -- 96
2019-03-24 06:00:00 8.2 6 Sur 10 Sur 0 -- -- 96
2019-03-24 05:00:00 8 8 Sur 10 Sudeste 0 -- -- 96
2019-03-24 04:00:00 7.9 5 Sur 9 Sudeste 0 -- -- 95
2019-03-24 03:00:00 8.9 5 Sur 10 Sudeste 0 -- -- 93
2019-03-24 02:00:00 10.1 6 Sur 8 Sudeste 0 -- -- 94
2019-03-24 01:00:00 10.8 5 Oeste 10 Oeste 0 -- -- 93
2019-03-24 00:00:00 10.8 6 Oeste 13 Oeste 0 -- -- 95
2019-03-23 23:00:00 9.9 8 Oeste 13 Oeste 0 -- -- 95
2019-03-23 22:00:00 9.7 9 Oeste 14 Oeste 0 -- -- 95
2019-03-23 21:00:00 10 10 Oeste 15 Oeste 0 -- -- 95
2019-03-23 20:00:00 10.9 13 Oeste 16 Oeste 0 -- -- 92
2019-03-23 19:00:00 12.8 8 Noroeste 16 Nordeste 0 -- -- 88
2019-03-23 18:00:00 14.2 10 Nordeste 17 Nordeste 0 -- -- 82
2019-03-23 17:00:00 14.7 11 Nordeste 22 Nordeste 0 -- -- 77
2019-03-23 16:00:00 15.6 10 Nordeste 21 Este 0 -- -- 73
2019-03-23 15:00:00 15.8 9 Nordeste 20 Nordeste 0 -- -- 75
2019-03-23 14:00:00 14.8 13 Nordeste 21 Este 0 -- -- 70
2019-03-23 13:00:00 15.3 10 Nordeste 15 Este 0 -- -- 62
2019-03-23 12:00:00 15.6 11 Nordeste 18 Este 0 -- -- 61
2019-03-23 11:00:00 15.2 6 Este 10 Nordeste 0 -- -- 61
2019-03-23 10:00:00 13.1 3 Este 5 Este 0 -- -- 65
2019-03-23 09:00:00 9.9 4 Sudeste 8 Sur 0 -- -- 74
2019-03-23 08:00:00 6 3 Sur 11 Sudeste 0 -- -- 84
2019-03-23 07:00:00 5.5 6 Sur 14 Sudeste 0 -- -- 84
2019-03-23 06:00:00 5.8 4 Sudoeste 11 Sudeste 0 -- -- 85
2019-03-23 05:00:00 6.1 5 Sur 15 Sur 0 -- -- 81
2019-03-23 04:00:00 6.6 10 Sur 13 Sur 0 -- -- 77
2019-03-23 03:00:00 6.9 4 Sur 11 Sur 0 -- -- 77
2019-03-23 02:00:00 6.9 9 Sur 12 Sur 0 -- -- 75
2019-03-23 01:00:00 6.8 3 Sur 5 Sudoeste 0 -- -- 77
2019-03-23 00:00:00 7.8 3 Sudoeste 12 Sudeste 0 -- -- 74
2019-03-22 23:00:00 8.5 12 Sudeste 15 Sur 0 -- -- 77
2019-03-22 22:00:00 7.7 5 Sur 8 Sur 0 -- -- 79
2019-03-22 21:00:00 8.5 5 Sur 6 Sur 0 -- -- 78
2019-03-22 20:00:00 10.5 4 Sur 9 Sur 0 -- -- 73
2019-03-22 19:00:00 14.1 4 Nordeste 7 Nordeste 0 -- -- 59
2019-03-22 18:00:00 14.7 4 Nordeste 9 Nordeste 0 -- -- 62
2019-03-22 17:00:00 14.9 5 Nordeste 14 Nordeste 0 -- -- 62
2019-03-22 16:00:00 14.9 8 Nordeste 15 Nordeste 0 -- -- 67
2019-03-22 15:00:00 14.9 8 Nordeste 15 Nordeste 0 -- -- 63
2019-03-22 14:00:00 15.5 8 Norte 14 Nordeste 0 -- -- 62
2019-03-22 13:00:00 16 7 Nordeste 13 Nordeste 0 -- -- 55
2019-03-22 12:00:00 15.8 7 Norte 12 Norte 0 -- -- 54
2019-03-22 11:00:00 14.6 7 Este 11 Este 0 -- -- 60
2019-03-22 10:00:00 12.2 5 Nordeste 9 Este 0 -- -- 79
2019-03-22 09:00:00 9.4 2 Noroeste 7 Sur 0 -- -- 88
2019-03-22 08:00:00 5.3 3 Sur 6 Sur 0 -- -- 93
2019-03-22 07:00:00 5.4 4 Sudeste 15 Sur 0 -- -- 92
2019-03-22 06:00:00 5.9 12 Sur 14 Sur 0 -- -- 92
2019-03-22 05:00:00 6.6 10 Sur 13 Sur 0 -- -- 92
2019-03-22 04:00:00 6.4 10 Sur 13 Sur 0 -- -- 93
2019-03-22 03:00:00 6.3 11 Sur 16 Sur 0 -- -- 94
2019-03-22 02:00:00 5.9 5 Sur 13 Sur 0 -- -- 92
2019-03-22 01:00:00 6 5 Sur 13 Sur 0 -- -- 92
2019-03-22 00:00:00 6.5 9 Sur 14 Sur 0 -- -- 91
2019-03-21 23:00:00 7 4 Sur 8 Sur 0 -- -- 86
2019-03-21 22:00:00 9.1 5 Sudeste 14 Este 0 -- -- 80
2019-03-21 21:00:00 10.6 9 Este 24 Nordeste 0 -- -- 78
2019-03-21 20:00:00 11.2 18 Este 34 Este 0 -- -- 78
2019-03-21 19:00:00 12.2 22 Este 45 Este 0 -- -- 73
2019-03-21 18:00:00 13.1 26 Este 42 Este 0 -- -- 65
2019-03-21 17:00:00 13.6 26 Este 47 Este 0 -- -- 65
2019-03-21 16:00:00 13.7 28 Este 47 Este 0 -- -- 67
2019-03-21 15:00:00 13.8 29 Este 54 Este 0 -- -- 69
2019-03-21 14:00:00 13.6 24 Nordeste 44 Nordeste 0 -- -- 72
2019-03-21 13:00:00 13.3 25 Nordeste 44 Este 0 -- -- 70
2019-03-21 12:00:00 13 28 Este 41 Nordeste 0 -- -- 68
2019-03-21 11:00:00 12.4 22 Este 35 Este 0 -- -- 61
2019-03-21 10:00:00 10.6 9 Este 18 Este 0 -- -- 62
2019-03-21 09:00:00 9.1 10 Este 15 Este 0 -- -- 66
2019-03-21 08:00:00 6.3 7 Sudeste 11 Sudeste 0 -- -- 78
2019-03-21 07:00:00 6.7 8 Sudeste 13 Sudeste 0 -- -- 73
2019-03-21 06:00:00 6.9 5 Sudeste 12 Sudeste 0 -- -- 75
2019-03-21 05:00:00 7.2 8 Sudeste 19 Este 0 -- -- 75
2019-03-21 04:00:00 7.9 12 Este 23 Este 0 -- -- 75
2019-03-21 03:00:00 7.5 8 Sudeste 18 Este 0 -- -- 79
2019-03-21 02:00:00 7.7 9 Sudeste 15 Este 0 -- -- 80
2019-03-21 01:00:00 7.6 6 Sudeste 12 Sudeste 0 -- -- 82
2019-03-21 00:00:00 8.2 7 Sudeste 16 Este 0 -- -- 79